sensor_id;sensor_type;location;lat;lon;timestamp;pressure;altitude;pressure_sealevel;temperature;humidity
28004;BME280;15330;51.234;6.754;2023-02-12T00:00:30;103322.69;;;7.96;100.00
28004;BME280;15330;51.234;6.754;2023-02-12T00:02:55;103332.34;;;7.99;100.00
28004;BME280;15330;51.234;6.754;2023-02-12T00:05:21;103331.56;;;7.97;100.00
28004;BME280;15330;51.234;6.754;2023-02-12T00:07:46;103331.81;;;7.92;100.00
28004;BME280;15330;51.234;6.754;2023-02-12T00:10:11;103323.38;;;7.84;100.00
28004;BME280;15330;51.234;6.754;2023-02-12T00:12:37;103329.75;;;7.97;100.00
28004;BME280;15330;51.234;6.754;2023-02-12T00:15:03;103328.63;;;8.01;100.00
28004;BME280;15330;51.234;6.754;2023-02-12T00:17:28;103332.34;;;7.99;100.00
28004;BME280;15330;51.234;6.754;2023-02-12T00:19:54;103329.22;;;7.91;100.00
28004;BME280;15330;51.234;6.754;2023-02-12T00:22:19;103327.25;;;7.94;100.00
28004;BME280;15330;51.234;6.754;2023-02-12T00:24:44;103326.03;;;8.00;100.00
28004;BME280;15330;51.234;6.754;2023-02-12T00:27:10;103319.09;;;7.97;100.00
28004;BME280;15330;51.234;6.754;2023-02-12T00:29:36;103323.47;;;7.98;100.00
28004;BME280;15330;51.234;6.754;2023-02-12T00:32:01;103315.56;;;7.97;100.00
28004;BME280;15330;51.234;6.754;2023-02-12T00:34:27;103319.75;;;8.01;100.00
28004;BME280;15330;51.234;6.754;2023-02-12T00:36:52;103319.09;;;7.97;100.00
28004;BME280;15330;51.234;6.754;2023-02-12T00:39:18;103317.09;;;8.01;100.00
28004;BME280;15330;51.234;6.754;2023-02-12T00:41:43;103317.09;;;8.01;100.00
28004;BME280;15330;51.234;6.754;2023-02-12T00:44:08;103320.72;;;8.00;100.00
28004;BME280;15330;51.234;6.754;2023-02-12T00:46:34;103328.63;;;8.01;100.00
28004;BME280;15330;51.234;6.754;2023-02-12T00:48:59;103325.16;;;7.99;100.00
28004;BME280;15330;51.234;6.754;2023-02-12T00:51:24;103325.16;;;7.99;100.00
28004;BME280;15330;51.234;6.754;2023-02-12T00:53:50;103320.53;;;8.03;100.00
28004;BME280;15330;51.234;6.754;2023-02-12T00:56:15;103319.53;;;8.05;100.00
28004;BME280;15330;51.234;6.754;2023-02-12T00:58:40;103320.47;;;8.04;100.00
28004;BME280;15330;51.234;6.754;2023-02-12T01:01:06;103319.09;;;7.97;100.00
28004;BME280;15330;51.234;6.754;2023-02-12T01:03:31;103313.75;;;7.97;100.00
28004;BME280;15330;51.234;6.754;2023-02-12T01:05:57;103315.38;;;8.00;100.00
28004;BME280;15330;51.234;6.754;2023-02-12T01:08:22;103315.28;;;8.01;100.00
28004;BME280;15330;51.234;6.754;2023-02-12T01:10:54;103324.00;;;8.05;100.00
28004;BME280;15330;51.234;6.754;2023-02-12T01:13:20;103320.47;;;8.04;100.00
28004;BME280;15330;51.234;6.754;2023-02-12T01:15:46;103315.06;;;8.06;100.00
28004;BME280;15330;51.234;6.754;2023-02-12T01:18:11;103318.16;;;7.98;100.00
28004;BME280;15330;51.234;6.754;2023-02-12T01:20:38;103318.22;;;7.97;100.00
28004;BME280;15330;51.234;6.754;2023-02-12T01:23:03;103308.50;;;7.96;100.00
28004;BME280;15330;51.234;6.754;2023-02-12T01:25:31;103306.44;;;8.01;100.00
28004;BME280;15330;51.234;6.754;2023-02-12T01:27:56;103307.50;;;7.98;100.00
28004;BME280;15330;51.234;6.754;2023-02-12T01:30:21;103313.22;;;7.91;100.00
28004;BME280;15330;51.234;6.754;2023-02-12T01:32:48;103308.69;;;7.93;100.00
28004;BME280;15330;51.234;6.754;2023-02-12T01:35:13;103303.84;;;7.99;100.00
28004;BME280;15330;51.234;6.754;2023-02-12T01:37:39;103305.50;;;8.02;100.00
28004;BME280;15330;51.234;6.754;2023-02-12T01:40:06;103311.41;;;7.91;100.00
28004;BME280;15330;51.234;6.754;2023-02-12T01:42:33;103310.41;;;7.94;100.00
28004;BME280;15330;51.234;6.754;2023-02-12T01:47:36;103301.63;;;7.92;100.00
28004;BME280;15330;51.234;6.754;2023-02-12T01:50:02;103306.78;;;7.95;100.00
28004;BME280;15330;51.234;6.754;2023-02-12T01:52:32;103300.44;;;7.97;100.00
28004;BME280;15330;51.234;6.754;2023-02-12T01:55:00;103306.44;;;8.01;100.00
28004;BME280;15330;51.234;6.754;2023-02-12T01:57:29;103306.72;;;7.96;100.00
28004;BME280;15330;51.234;6.754;2023-02-12T01:59:57;103305.94;;;7.94;100.00
28004;BME280;15330;51.234;6.754;2023-02-12T02:02:24;103299.50;;;7.98;100.00
28004;BME280;15330;51.234;6.754;2023-02-12T02:04:53;103297.69;;;7.99;100.00
28004;BME280;15330;51.234;6.754;2023-02-12T02:07:21;103296.72;;;8.00;100.00
28004;BME280;15330;51.234;6.754;2023-02-12T02:09:47;103293.19;;;7.99;100.00
28004;BME280;15330;51.234;6.754;2023-02-12T02:12:12;103296.91;;;7.97;100.00
28004;BME280;15330;51.234;6.754;2023-02-12T02:14:58;103299.22;;;7.87;100.00
28004;BME280;15330;51.234;6.754;2023-02-12T02:23:10;103292.34;;;7.83;100.00
28004;BME280;15330;51.234;6.754;2023-02-12T02:28:56;103288.38;;;7.90;100.00
28004;BME280;15330;51.234;6.754;2023-02-12T02:31:43;103292.97;;;7.88;100.00
28004;BME280;15330;51.234;6.754;2023-02-12T02:34:21;103285.13;;;7.85;100.00
28004;BME280;15330;51.234;6.754;2023-02-12T02:36:55;103293.13;;;7.85;100.00
28004;BME280;15330;51.234;6.754;2023-02-12T02:39:43;103301.69;;;7.90;100.00
28004;BME280;15330;51.234;6.754;2023-02-12T02:42:24;103297.16;;;7.92;100.00
28004;BME280;15330;51.234;6.754;2023-02-12T02:45:01;103291.03;;;7.90;100.00
28004;BME280;15330;51.234;6.754;2023-02-12T02:47:37;103288.66;;;7.86;100.00
28004;BME280;15330;51.234;6.754;2023-02-12T02:50:09;103298.19;;;7.74;100.00
28004;BME280;15330;51.234;6.754;2023-02-12T02:52:49;103287.09;;;7.82;100.00
28004;BME280;15330;51.234;6.754;2023-02-12T02:55:18;103286.00;;;7.86;100.00
28004;BME280;15330;51.234;6.754;2023-02-12T02:58:34;103286.78;;;7.88;100.00
28004;BME280;15330;51.234;6.754;2023-02-12T03:00:42;103275.06;;;7.74;100.00
28004;BME280;15330;51.234;6.754;2023-02-12T03:03:19;103287.69;;;7.71;100.00
28004;BME280;15330;51.234;6.754;2023-02-12T03:05:52;103285.09;;;7.69;100.00
28004;BME280;15330;51.234;6.754;2023-02-12T03:08:22;103285.78;;;7.57;100.00
28004;BME280;15330;51.234;6.754;2023-02-12T03:11:04;103294.88;;;7.69;100.00
28004;BME280;15330;51.234;6.754;2023-02-12T03:14:08;103288.88;;;7.81;100.00
28004;BME280;15330;51.234;6.754;2023-02-12T03:16:48;103293.34;;;7.81;100.00
28004;BME280;15330;51.234;6.754;2023-02-12T03:19:22;103286.16;;;7.83;100.00
28004;BME280;15330;51.234;6.754;2023-02-12T03:22:10;103290.44;;;7.85;100.00
28004;BME280;15330;51.234;6.754;2023-02-12T03:24:50;103287.34;;;7.93;100.00
28004;BME280;15330;51.234;6.754;2023-02-12T03:27:41;103280.31;;;7.76;100.00
28004;BME280;15330;51.234;6.754;2023-02-12T03:30:09;103282.97;;;7.76;100.00
28004;BME280;15330;51.234;6.754;2023-02-12T03:32:51;103289.47;;;7.70;100.00
28004;BME280;15330;51.234;6.754;2023-02-12T03:35:24;103287.00;;;7.67;100.00
28004;BME280;15330;51.234;6.754;2023-02-12T03:38:13;103282.53;;;7.68;100.00
28004;BME280;15330;51.234;6.754;2023-02-12T03:40:45;103284.06;;;7.72;100.00
28004;BME280;15330;51.234;6.754;2023-02-12T03:43:54;103282.97;;;7.76;100.00
28004;BME280;15330;51.234;6.754;2023-02-12T03:46:37;103278.75;;;7.72;100.00
28004;BME280;15330;51.234;6.754;2023-02-12T03:49:28;103281.69;;;7.83;100.00
28004;BME280;15330;51.234;6.754;2023-02-12T03:51:55;103279.28;;;7.79;100.00
28004;BME280;15330;51.234;6.754;2023-02-12T03:54:22;103276.88;;;7.74;100.00
28004;BME280;15330;51.234;6.754;2023-02-12T03:57:02;103276.00;;;7.73;100.00
28004;BME280;15330;51.234;6.754;2023-02-12T03:59:29;103280.38;;;7.74;100.00
28004;BME280;15330;51.234;6.754;2023-02-12T04:01:57;103281.34;;;7.73;100.00
28004;BME280;15330;51.234;6.754;2023-02-12T04:04:24;103282.69;;;7.65;100.00
28004;BME280;15330;51.234;6.754;2023-02-12T04:06:51;103288.53;;;7.71;100.00
28004;BME280;15330;51.234;6.754;2023-02-12T04:09:18;103288.38;;;7.74;100.00
28004;BME280;15330;51.234;6.754;2023-02-12T04:14:53;103292.84;;;7.74;100.00
28004;BME280;15330;51.234;6.754;2023-02-12T04:17:31;103297.22;;;7.75;100.00
28004;BME280;15330;51.234;6.754;2023-02-12T04:28:55;103308.84;;;7.74;100.00
28004;BME280;15330;51.234;6.754;2023-02-12T04:31:29;103308.69;;;7.77;100.00
28004;BME280;15330;51.234;6.754;2023-02-12T04:34:32;103316.47;;;7.80;100.00
28004;BME280;15330;51.234;6.754;2023-02-12T04:37:04;103323.16;;;7.56;100.00
28004;BME280;15330;51.234;6.754;2023-02-12T04:39:34;103320.84;;;7.65;100.00
28004;BME280;15330;51.234;6.754;2023-02-12T04:42:01;103314.50;;;7.68;100.00
28004;BME280;15330;51.234;6.754;2023-02-12T04:44:31;103324.13;;;7.70;100.00
28004;BME280;15330;51.234;6.754;2023-02-12T04:46:57;103333.16;;;7.68;100.00
28004;BME280;15330;51.234;6.754;2023-02-12T04:49:23;103330.38;;;7.69;100.00
28004;BME280;15330;51.234;6.754;2023-02-12T04:51:49;103321.88;;;7.63;100.00
28004;BME280;15330;51.234;6.754;2023-02-12T04:54:16;103329.28;;;7.58;100.00
28004;BME280;15330;51.234;6.754;2023-02-12T04:56:42;103335.91;;;7.66;100.00
28004;BME280;15330;51.234;6.754;2023-02-12T04:59:08;103331.94;;;7.73;100.00
28004;BME280;15330;51.234;6.754;2023-02-12T05:01:35;103326.38;;;7.78;100.00
28004;BME280;15330;51.234;6.754;2023-02-12T05:04:01;103320.34;;;7.74;100.00
28004;BME280;15330;51.234;6.754;2023-02-12T05:06:26;103284.28;;;7.19;100.00
28004;BME280;15330;51.234;6.754;2023-02-12T05:08:52;103330.84;;;7.27;100.00
28004;BME280;15330;51.234;6.754;2023-02-12T05:11:18;103322.88;;;7.27;100.00
28004;BME280;15330;51.234;6.754;2023-02-12T05:13:47;103325.25;;;7.82;100.00
28004;BME280;15330;51.234;6.754;2023-02-12T05:16:13;103319.88;;;8.15;100.00
28004;BME280;15330;51.234;6.754;2023-02-12T05:18:38;103330.09;;;8.23;100.00
28004;BME280;15330;51.234;6.754;2023-02-12T05:21:04;103329.81;;;8.11;100.00
28004;BME280;15330;51.234;6.754;2023-02-12T05:23:32;103330.28;;;8.20;100.00
28004;BME280;15330;51.234;6.754;2023-02-12T05:25:58;103330.38;;;8.18;100.00
28004;BME280;15330;51.234;6.754;2023-02-12T05:28:24;103336.72;;;8.31;100.00
28004;BME280;15330;51.234;6.754;2023-02-12T05:30:49;103339.63;;;8.11;100.00
28004;BME280;15330;51.234;6.754;2023-02-12T05:33:15;103337.31;;;8.05;100.00
28004;BME280;15330;51.234;6.754;2023-02-12T05:35:40;103340.50;;;7.96;100.00
28004;BME280;15330;51.234;6.754;2023-02-12T05:38:06;103336.25;;;7.92;100.00
28004;BME280;15330;51.234;6.754;2023-02-12T05:40:31;103341.44;;;7.95;100.00
28004;BME280;15330;51.234;6.754;2023-02-12T05:42:56;103345.81;;;7.96;100.00
28004;BME280;15330;51.234;6.754;2023-02-12T05:45:22;103345.75;;;7.97;100.00
28004;BME280;15330;51.234;6.754;2023-02-12T05:47:52;103345.19;;;7.91;100.00
28004;BME280;15330;51.234;6.754;2023-02-12T05:50:17;103345.97;;;7.77;100.00
28004;BME280;15330;51.234;6.754;2023-02-12T05:52:43;103356.28;;;7.50;100.00
28004;BME280;15330;51.234;6.754;2023-02-12T05:55:08;103358.75;;;7.70;100.00
28004;BME280;15330;51.234;6.754;2023-02-12T05:57:33;103343.03;;;7.82;100.00
28004;BME280;15330;51.234;6.754;2023-02-12T05:59:59;103348.22;;;7.85;100.00
28004;BME280;15330;51.234;6.754;2023-02-12T06:02:24;103343.13;;;7.80;100.00
28004;BME280;15330;51.234;6.754;2023-02-12T06:04:49;103351.09;;;7.64;100.00
28004;BME280;15330;51.234;6.754;2023-02-12T06:07:15;103350.75;;;7.70;100.00
28004;BME280;15330;51.234;6.754;2023-02-12T06:09:40;103357.88;;;7.70;100.00
28004;BME280;15330;51.234;6.754;2023-02-12T06:12:05;103352.56;;;7.70;100.00
28004;BME280;15330;51.234;6.754;2023-02-12T06:14:31;103354.13;;;7.74;100.00
28004;BME280;15330;51.234;6.754;2023-02-12T06:16:56;103352.31;;;7.74;100.00
28004;BME280;15330;51.234;6.754;2023-02-12T06:19:21;103346.50;;;7.84;100.00
28004;BME280;15330;51.234;6.754;2023-02-12T06:21:48;103352.56;;;7.70;100.00
28004;BME280;15330;51.234;6.754;2023-02-12T06:24:15;103346.63;;;7.65;100.00
28004;BME280;15330;51.234;6.754;2023-02-12T06:26:41;103349.09;;;7.52;100.00
28004;BME280;15330;51.234;6.754;2023-02-12T06:29:06;103352.75;;;7.50;100.00
28004;BME280;15330;51.234;6.754;2023-02-12T06:31:33;103352.91;;;7.64;100.00
28004;BME280;15330;51.234;6.754;2023-02-12T06:34:02;103361.63;;;7.50;100.00
28004;BME280;15330;51.234;6.754;2023-02-12T06:36:28;103355.69;;;7.45;100.00
28004;BME280;15330;51.234;6.754;2023-02-12T06:38:54;103353.47;;;7.53;100.00
28004;BME280;15330;51.234;6.754;2023-02-12T06:41:20;103346.00;;;8.24;100.00
28004;BME280;15330;51.234;6.754;2023-02-12T06:43:46;103350.78;;;8.35;100.00
28004;BME280;15330;51.234;6.754;2023-02-12T06:46:12;103347.13;;;8.52;100.00
28004;BME280;15330;51.234;6.754;2023-02-12T06:48:38;103356.06;;;8.66;100.00
28004;BME280;15330;51.234;6.754;2023-02-12T06:51:05;103356.84;;;8.68;100.00
28004;BME280;15330;51.234;6.754;2023-02-12T06:53:32;103372.09;;;8.66;100.00
28004;BME280;15330;51.234;6.754;2023-02-12T06:56:05;103370.94;;;8.86;100.00
28004;BME280;15330;51.234;6.754;2023-02-12T06:58:35;103369.78;;;8.60;100.00
28004;BME280;15330;51.234;6.754;2023-02-12T07:01:28;103372.50;;;8.27;100.00
28004;BME280;15330;51.234;6.754;2023-02-12T07:04:01;103369.84;;;8.27;100.00
28004;BME280;15330;51.234;6.754;2023-02-12T07:06:28;103370.44;;;8.17;100.00
28004;BME280;15330;51.234;6.754;2023-02-12T07:08:55;103380.47;;;7.96;100.00
28004;BME280;15330;51.234;6.754;2023-02-12T07:11:29;103396.91;;;7.71;100.00
28004;BME280;15330;51.234;6.754;2023-02-12T07:13:55;103384.91;;;7.80;100.00
28004;BME280;15330;51.234;6.754;2023-02-12T07:16:20;103389.28;;;7.81;100.00
28004;BME280;15330;51.234;6.754;2023-02-12T07:18:46;103384.91;;;7.80;100.00
28004;BME280;15330;51.234;6.754;2023-02-12T07:21:13;103386.53;;;7.82;100.00
28004;BME280;15330;51.234;6.754;2023-02-12T07:23:39;103391.47;;;7.57;100.00
28004;BME280;15330;51.234;6.754;2023-02-12T07:26:12;103395.38;;;7.67;100.00
28004;BME280;15330;51.234;6.754;2023-02-12T07:28:38;103387.75;;;7.77;100.00
28004;BME280;15330;51.234;6.754;2023-02-12T07:31:11;103387.75;;;7.77;100.00
28004;BME280;15330;51.234;6.754;2023-02-12T07:33:37;103391.94;;;7.81;100.00
28004;BME280;15330;51.234;6.754;2023-02-12T07:36:05;103394.47;;;7.84;100.00
28004;BME280;15330;51.234;6.754;2023-02-12T07:38:30;103395.31;;;7.84;100.00
28004;BME280;15330;51.234;6.754;2023-02-12T07:41:09;103396.09;;;8.35;100.00
28004;BME280;15330;51.234;6.754;2023-02-12T07:43:34;103395.59;;;8.60;100.00
28004;BME280;15330;51.234;6.754;2023-02-12T07:46:08;103402.75;;;9.49;100.00
28004;BME280;15330;51.234;6.754;2023-02-12T07:48:34;103400.72;;;8.78;100.00
28004;BME280;15330;51.234;6.754;2023-02-12T07:51:05;103398.22;;;8.75;100.00
28004;BME280;15330;51.234;6.754;2023-02-12T07:53:31;103386.41;;;8.50;100.00
28004;BME280;15330;51.234;6.754;2023-02-12T07:56:16;103401.69;;;8.62;100.00
28004;BME280;15330;51.234;6.754;2023-02-12T07:58:43;103399.81;;;8.48;100.00
28004;BME280;15330;51.234;6.754;2023-02-12T08:03:37;103405.44;;;8.26;100.00
28004;BME280;15330;51.234;6.754;2023-02-12T08:06:11;103407.47;;;8.38;100.00
28004;BME280;15330;51.234;6.754;2023-02-12T08:08:37;103408.25;;;8.40;100.00
28004;BME280;15330;51.234;6.754;2023-02-12T08:11:04;103417.59;;;8.32;100.00
28004;BME280;15330;51.234;6.754;2023-02-12T08:13:31;103405.47;;;8.42;100.00
28004;BME280;15330;51.234;6.754;2023-02-12T08:16:01;103419.16;;;8.52;100.00
28004;BME280;15330;51.234;6.754;2023-02-12T08:18:27;103411.09;;;8.20;100.00
28004;BME280;15330;51.234;6.754;2023-02-12T08:20:52;103411.97;;;8.05;100.00
28004;BME280;15330;51.234;6.754;2023-02-12T08:23:17;103418.31;;;8.35;100.00
28004;BME280;15330;51.234;6.754;2023-02-12T08:25:42;103425.72;;;8.13;100.00
28004;BME280;15330;51.234;6.754;2023-02-12T08:28:08;103422.97;;;8.15;100.00
28004;BME280;15330;51.234;6.754;2023-02-12T08:30:33;103419.72;;;8.25;100.00
28004;BME280;15330;51.234;6.754;2023-02-12T08:32:59;103427.25;;;8.34;100.00
28004;BME280;15330;51.234;6.754;2023-02-12T08:35:24;103428.00;;;8.83;100.00
28004;BME280;15330;51.234;6.754;2023-02-12T08:37:49;103426.19;;;8.84;100.00
28004;BME280;15330;51.234;6.754;2023-02-12T08:40:15;103426.47;;;8.79;100.00
28004;BME280;15330;51.234;6.754;2023-02-12T08:42:40;103428.13;;;8.82;100.00
28004;BME280;15330;51.234;6.754;2023-02-12T08:45:06;103430.94;;;8.79;100.00
28004;BME280;15330;51.234;6.754;2023-02-12T08:47:31;103436.28;;;8.79;100.00
28004;BME280;15330;51.234;6.754;2023-02-12T08:49:57;103434.19;;;8.84;99.92
28004;BME280;15330;51.234;6.754;2023-02-12T08:52:22;103434.72;;;8.91;99.67
28004;BME280;15330;51.234;6.754;2023-02-12T08:54:47;103430.78;;;8.82;98.81
28004;BME280;15330;51.234;6.754;2023-02-12T08:57:13;103427.22;;;8.97;98.88
28004;BME280;15330;51.234;6.754;2023-02-12T08:59:38;103432.97;;;9.35;97.64
28004;BME280;15330;51.234;6.754;2023-02-12T09:02:03;103428.34;;;9.53;96.36
28004;BME280;15330;51.234;6.754;2023-02-12T09:04:34;103432.47;;;9.29;96.57
28004;BME280;15330;51.234;6.754;2023-02-12T09:07:00;103435.97;;;9.15;97.31
28004;BME280;15330;51.234;6.754;2023-02-12T09:09:26;103427.47;;;9.08;97.44
28004;BME280;15330;51.234;6.754;2023-02-12T09:11:51;103428.06;;;9.13;97.33
28004;BME280;15330;51.234;6.754;2023-02-12T09:14:17;103436.78;;;9.31;97.03
28004;BME280;15330;51.234;6.754;2023-02-12T09:16:47;103436.31;;;9.39;95.95
28004;BME280;15330;51.234;6.754;2023-02-12T09:19:13;103437.19;;;9.39;95.95
28004;BME280;15330;51.234;6.754;2023-02-12T09:21:39;103436.28;;;9.54;95.00
28004;BME280;15330;51.234;6.754;2023-02-12T09:24:05;103437.28;;;9.38;95.53
28004;BME280;15330;51.234;6.754;2023-02-12T09:26:30;103438.56;;;9.61;95.27
28004;BME280;15330;51.234;6.754;2023-02-12T09:28:56;103438.19;;;9.67;94.54
28004;BME280;15330;51.234;6.754;2023-02-12T09:31:26;103442.44;;;9.85;94.11
28004;BME280;15330;51.234;6.754;2023-02-12T09:33:57;103439.84;;;9.98;93.83
28004;BME280;15330;51.234;6.754;2023-02-12T09:36:23;103448.63;;;10.00;93.37
28004;BME280;15330;51.234;6.754;2023-02-12T09:38:48;103443.78;;;9.92;92.73
28004;BME280;15330;51.234;6.754;2023-02-12T09:44:10;103444.66;;;10.07;90.58
28004;BME280;15330;51.234;6.754;2023-02-12T09:51:50;103437.34;;;10.09;89.47
28004;BME280;15330;51.234;6.754;2023-02-12T09:54:21;103445.47;;;9.65;88.68
28004;BME280;15330;51.234;6.754;2023-02-12T09:56:56;103444.81;;;10.04;87.92
28004;BME280;15330;51.234;6.754;2023-02-12T09:59:36;103449.50;;;10.14;87.61
28004;BME280;15330;51.234;6.754;2023-02-12T10:02:29;103452.34;;;9.97;90.13
28004;BME280;15330;51.234;6.754;2023-02-12T10:04:55;103449.66;;;9.54;93.90
28004;BME280;15330;51.234;6.754;2023-02-12T10:07:39;103443.66;;;9.79;93.64
28004;BME280;15330;51.234;6.754;2023-02-12T10:25:47;103455.06;;;9.53;95.47
28004;BME280;15330;51.234;6.754;2023-02-12T10:28:18;103453.31;;;9.82;94.70
28004;BME280;15330;51.234;6.754;2023-02-12T10:30:58;103460.94;;;9.74;94.40
28004;BME280;15330;51.234;6.754;2023-02-12T10:33:35;103457.41;;;9.73;93.72
28004;BME280;15330;51.234;6.754;2023-02-12T10:36:23;103458.25;;;9.88;93.88
28004;BME280;15330;51.234;6.754;2023-02-12T10:41:34;103457.38;;;9.59;94.27
28004;BME280;15330;51.234;6.754;2023-02-12T10:44:01;103454.56;;;9.90;93.88
28004;BME280;15330;51.234;6.754;2023-02-12T10:46:29;103449.50;;;10.00;92.59
28004;BME280;15330;51.234;6.754;2023-02-12T10:48:57;103445.28;;;9.82;91.94
28004;BME280;15330;51.234;6.754;2023-02-12T10:51:37;103455.91;;;10.12;91.46
28004;BME280;15330;51.234;6.754;2023-02-12T10:54:33;103454.72;;;9.87;92.08
28004;BME280;15330;51.234;6.754;2023-02-12T10:57:14;103454.34;;;10.08;90.81
28004;BME280;15330;51.234;6.754;2023-02-12T10:59:42;103452.28;;;10.13;90.96
28004;BME280;15330;51.234;6.754;2023-02-12T11:02:21;103439.66;;;10.15;90.30
28004;BME280;15330;51.234;6.754;2023-02-12T11:04:47;103440.44;;;10.03;91.52
28004;BME280;15330;51.234;6.754;2023-02-12T11:07:13;103437.94;;;10.14;91.04
28004;BME280;15330;51.234;6.754;2023-02-12T11:09:43;103441.66;;;10.40;90.71
28004;BME280;15330;51.234;6.754;2023-02-12T11:14:59;103433.34;;;10.58;89.92
28004;BME280;15330;51.234;6.754;2023-02-12T11:17:37;103433.03;;;10.49;89.63
28004;BME280;15330;51.234;6.754;2023-02-12T11:22:29;103434.66;;;10.65;87.12
28004;BME280;15330;51.234;6.754;2023-02-12T11:25:13;103426.44;;;10.69;87.53
28004;BME280;15330;51.234;6.754;2023-02-12T11:27:40;103425.16;;;10.33;87.14
28004;BME280;15330;51.234;6.754;2023-02-12T11:32:35;103425.16;;;10.33;87.66
28004;BME280;15330;51.234;6.754;2023-02-12T11:35:05;103420.06;;;10.43;87.79
28004;BME280;15330;51.234;6.754;2023-02-12T11:37:32;103417.13;;;10.47;87.65
28004;BME280;15330;51.234;6.754;2023-02-12T11:39:59;103417.00;;;10.49;87.64
28004;BME280;15330;51.234;6.754;2023-02-12T11:42:25;103407.91;;;10.51;86.80
28004;BME280;15330;51.234;6.754;2023-02-12T11:44:54;103406.75;;;10.55;86.50
28004;BME280;15330;51.234;6.754;2023-02-12T11:47:24;103407.06;;;10.51;86.04
28004;BME280;15330;51.234;6.754;2023-02-12T11:49:55;103410.41;;;10.54;87.56
28004;BME280;15330;51.234;6.754;2023-02-12T11:52:27;103410.84;;;10.61;86.04
28004;BME280;15330;51.234;6.754;2023-02-12T11:54:57;103410.66;;;10.64;86.54
28004;BME280;15330;51.234;6.754;2023-02-12T12:00:28;103409.59;;;10.25;86.51
28004;BME280;15330;51.234;6.754;2023-02-12T12:03:01;103402.13;;;10.16;86.85
28004;BME280;15330;51.234;6.754;2023-02-12T12:05:36;103408.34;;;10.31;86.94
28004;BME280;15330;51.234;6.754;2023-02-12T12:08:06;103400.47;;;10.42;86.62
28004;BME280;15330;51.234;6.754;2023-02-12T12:10:40;103393.22;;;10.44;86.18
28004;BME280;15330;51.234;6.754;2023-02-12T12:13:31;103396.69;;;10.32;85.49
28004;BME280;15330;51.234;6.754;2023-02-12T12:16:08;103387.09;;;10.42;85.70
28004;BME280;15330;51.234;6.754;2023-02-12T12:18:58;103389.88;;;10.41;86.45
28004;BME280;15330;51.234;6.754;2023-02-12T12:21:56;103388.38;;;10.08;85.93
28004;BME280;15330;51.234;6.754;2023-02-12T12:24:40;103379.19;;;10.12;86.57
28004;BME280;15330;51.234;6.754;2023-02-12T12:27:17;103378.06;;;10.16;86.27
28004;BME280;15330;51.234;6.754;2023-02-12T12:30:04;103371.31;;;9.97;85.79
28004;BME280;15330;51.234;6.754;2023-02-12T12:32:33;103372.72;;;10.16;85.77
28004;BME280;15330;51.234;6.754;2023-02-12T12:35:00;103366.22;;;10.06;85.91
28004;BME280;15330;51.234;6.754;2023-02-12T12:42:54;103355.34;;;10.23;84.58
28004;BME280;15330;51.234;6.754;2023-02-12T12:45:58;103359.06;;;10.07;85.91
28004;BME280;15330;51.234;6.754;2023-02-12T12:51:18;103349.72;;;10.41;84.77
28004;BME280;15330;51.234;6.754;2023-02-12T12:53:57;103346.72;;;10.33;84.33
28004;BME280;15330;51.234;6.754;2023-02-12T13:04:41;103336.59;;;10.23;84.89
28004;BME280;15330;51.234;6.754;2023-02-12T13:10:16;103327.25;;;10.16;84.05
28004;BME280;15330;51.234;6.754;2023-02-12T13:15:19;103320.66;;;10.49;83.88
28004;BME280;15330;51.234;6.754;2023-02-12T13:23:08;103313.56;;;10.35;84.08
28004;BME280;15330;51.234;6.754;2023-02-12T13:26:02;103306.72;;;10.44;84.24
28004;BME280;15330;51.234;6.754;2023-02-12T13:28:37;103303.47;;;10.26;84.52
28004;BME280;15330;51.234;6.754;2023-02-12T13:31:09;103302.50;;;10.13;83.90
28004;BME280;15330;51.234;6.754;2023-02-12T13:36:09;103300.22;;;10.48;84.29
28004;BME280;15330;51.234;6.754;2023-02-12T13:38:42;103303.09;;;10.45;83.73
28004;BME280;15330;51.234;6.754;2023-02-12T13:41:10;103297.75;;;10.45;84.21
28004;BME280;15330;51.234;6.754;2023-02-12T13:43:52;103305.88;;;10.43;84.19
28004;BME280;15330;51.234;6.754;2023-02-12T13:56:58;103300.56;;;10.56;85.80
28004;BME280;15330;51.234;6.754;2023-02-12T14:02:00;103292.59;;;10.42;85.15
28004;BME280;15330;51.234;6.754;2023-02-12T14:04:56;103291.50;;;10.17;86.26
28004;BME280;15330;51.234;6.754;2023-02-12T14:07:42;103296.56;;;10.22;85.79
28004;BME280;15330;51.234;6.754;2023-02-12T14:10:22;103293.13;;;10.20;85.99
28004;BME280;15330;51.234;6.754;2023-02-12T14:12:49;103289.97;;;10.27;85.54
28004;BME280;15330;51.234;6.754;2023-02-12T14:15:28;103292.56;;;10.15;86.43
28004;BME280;15330;51.234;6.754;2023-02-12T14:20:31;103296.44;;;10.38;85.74
28004;BME280;15330;51.234;6.754;2023-02-12T14:25:25;103290.66;;;10.17;85.79
28004;BME280;15330;51.234;6.754;2023-02-12T14:27:56;103296.28;;;10.26;86.42
28004;BME280;15330;51.234;6.754;2023-02-12T14:43:17;103297.25;;;10.25;86.10
28004;BME280;15330;51.234;6.754;2023-02-12T14:45:47;103297.91;;;10.15;86.03
28004;BME280;15330;51.234;6.754;2023-02-12T14:48:40;103295.44;;;10.12;86.65
28004;BME280;15330;51.234;6.754;2023-02-12T14:53:54;103293.59;;;9.85;87.18
28004;BME280;15330;51.234;6.754;2023-02-12T14:56:21;103295.34;;;9.99;86.67
28004;BME280;15330;51.234;6.754;2023-02-12T14:58:49;103292.91;;;9.96;87.26
28004;BME280;15330;51.234;6.754;2023-02-12T15:01:17;103286.19;;;10.03;86.92
28004;BME280;15330;51.234;6.754;2023-02-12T15:03:53;103287.16;;;10.02;86.78
28004;BME280;15330;51.234;6.754;2023-02-12T15:06:31;103290.28;;;10.09;86.62
28004;BME280;15330;51.234;6.754;2023-02-12T15:09:28;103283.41;;;10.19;86.84
28004;BME280;15330;51.234;6.754;2023-02-12T15:12:04;103287.97;;;10.17;86.54
28004;BME280;15330;51.234;6.754;2023-02-12T15:14:34;103280.50;;;9.95;87.03